sensor_id;sensor_type;location;lat;lon;timestamp;temperature;humidity
29413;DHT22;16389;50.126;8.450;2023-04-24T00:00:08;10.30;99.90
29413;DHT22;16389;50.126;8.450;2023-04-24T00:02:35;10.30;99.90
29413;DHT22;16389;50.126;8.450;2023-04-24T00:05:04;10.40;99.90
29413;DHT22;16389;50.126;8.450;2023-04-24T00:07:31;10.50;99.90
29413;DHT22;16389;50.126;8.450;2023-04-24T00:09:57;10.50;99.90
29413;DHT22;16389;50.126;8.450;2023-04-24T00:12:23;10.50;99.90
29413;DHT22;16389;50.126;8.450;2023-04-24T00:14:49;10.60;99.90
29413;DHT22;16389;50.126;8.450;2023-04-24T00:17:14;10.70;99.90
29413;DHT22;16389;50.126;8.450;2023-04-24T00:19:40;10.70;99.90
29413;DHT22;16389;50.126;8.450;2023-04-24T00:22:06;10.70;99.90
29413;DHT22;16389;50.126;8.450;2023-04-24T00:24:32;10.70;99.90
29413;DHT22;16389;50.126;8.450;2023-04-24T00:26:57;10.60;99.90
29413;DHT22;16389;50.126;8.450;2023-04-24T00:29:24;10.70;99.90
29413;DHT22;16389;50.126;8.450;2023-04-24T00:31:50;10.60;99.90
29413;DHT22;16389;50.126;8.450;2023-04-24T00:34:16;10.60;99.90
29413;DHT22;16389;50.126;8.450;2023-04-24T00:36:41;10.50;99.90
29413;DHT22;16389;50.126;8.450;2023-04-24T00:39:07;10.50;99.90
29413;DHT22;16389;50.126;8.450;2023-04-24T00:41:35;10.50;99.90
29413;DHT22;16389;50.126;8.450;2023-04-24T00:44:01;10.50;99.90
29413;DHT22;16389;50.126;8.450;2023-04-24T00:46:27;10.60;99.90
29413;DHT22;16389;50.126;8.450;2023-04-24T00:48:53;10.60;99.90
29413;DHT22;16389;50.126;8.450;2023-04-24T00:51:18;10.70;99.90
29413;DHT22;16389;50.126;8.450;2023-04-24T00:53:45;10.70;99.90
29413;DHT22;16389;50.126;8.450;2023-04-24T00:56:11;10.70;99.90
29413;DHT22;16389;50.126;8.450;2023-04-24T00:58:37;10.80;99.90
29413;DHT22;16389;50.126;8.450;2023-04-24T01:01:03;10.80;99.90
29413;DHT22;16389;50.126;8.450;2023-04-24T01:03:32;10.80;99.90
29413;DHT22;16389;50.126;8.450;2023-04-24T01:05:58;10.90;99.90
29413;DHT22;16389;50.126;8.450;2023-04-24T01:08:25;10.90;99.90
29413;DHT22;16389;50.126;8.450;2023-04-24T01:10:52;10.80;99.90
29413;DHT22;16389;50.126;8.450;2023-04-24T01:13:18;10.70;99.90
29413;DHT22;16389;50.126;8.450;2023-04-24T01:15:44;10.70;99.90
29413;DHT22;16389;50.126;8.450;2023-04-24T01:18:10;10.70;99.90
29413;DHT22;16389;50.126;8.450;2023-04-24T01:20:39;10.70;99.90
29413;DHT22;16389;50.126;8.450;2023-04-24T01:23:05;10.80;99.90
29413;DHT22;16389;50.126;8.450;2023-04-24T01:25:31;10.70;99.90
29413;DHT22;16389;50.126;8.450;2023-04-24T01:27:57;10.70;99.90
29413;DHT22;16389;50.126;8.450;2023-04-24T01:30:23;10.70;99.90
29413;DHT22;16389;50.126;8.450;2023-04-24T01:32:49;10.70;99.90
29413;DHT22;16389;50.126;8.450;2023-04-24T01:35:15;10.70;99.90
29413;DHT22;16389;50.126;8.450;2023-04-24T01:37:40;10.80;99.90
29413;DHT22;16389;50.126;8.450;2023-04-24T01:40:06;10.80;99.90
29413;DHT22;16389;50.126;8.450;2023-04-24T01:42:32;10.80;99.90
29413;DHT22;16389;50.126;8.450;2023-04-24T01:44:59;10.80;99.90
29413;DHT22;16389;50.126;8.450;2023-04-24T01:47:26;10.80;99.90
29413;DHT22;16389;50.126;8.450;2023-04-24T01:49:52;10.80;99.90
29413;DHT22;16389;50.126;8.450;2023-04-24T01:52:17;10.80;99.90
29413;DHT22;16389;50.126;8.450;2023-04-24T01:54:44;10.80;99.90
29413;DHT22;16389;50.126;8.450;2023-04-24T01:57:10;10.70;99.90
29413;DHT22;16389;50.126;8.450;2023-04-24T01:59:36;10.70;99.90
29413;DHT22;16389;50.126;8.450;2023-04-24T02:02:02;10.70;99.90
29413;DHT22;16389;50.126;8.450;2023-04-24T02:04:28;10.70;99.90
29413;DHT22;16389;50.126;8.450;2023-04-24T02:06:54;10.70;99.90
29413;DHT22;16389;50.126;8.450;2023-04-24T02:09:19;10.70;99.90
29413;DHT22;16389;50.126;8.450;2023-04-24T02:11:45;10.60;99.90
29413;DHT22;16389;50.126;8.450;2023-04-24T02:14:11;10.70;99.90
29413;DHT22;16389;50.126;8.450;2023-04-24T02:16:38;10.70;99.90
29413;DHT22;16389;50.126;8.450;2023-04-24T02:19:03;10.70;99.90
29413;DHT22;16389;50.126;8.450;2023-04-24T02:21:29;10.70;99.90
29413;DHT22;16389;50.126;8.450;2023-04-24T02:23:56;10.70;99.90
29413;DHT22;16389;50.126;8.450;2023-04-24T02:26:22;10.60;99.90
29413;DHT22;16389;50.126;8.450;2023-04-24T02:28:48;10.60;99.90
29413;DHT22;16389;50.126;8.450;2023-04-24T02:31:14;10.60;99.90
29413;DHT22;16389;50.126;8.450;2023-04-24T02:33:40;10.60;99.90
29413;DHT22;16389;50.126;8.450;2023-04-24T02:36:05;10.60;99.90
29413;DHT22;16389;50.126;8.450;2023-04-24T02:38:31;10.60;99.90
29413;DHT22;16389;50.126;8.450;2023-04-24T02:40:57;10.60;99.90
29413;DHT22;16389;50.126;8.450;2023-04-24T02:43:22;10.60;99.90
29413;DHT22;16389;50.126;8.450;2023-04-24T02:45:48;10.50;99.90
29413;DHT22;16389;50.126;8.450;2023-04-24T02:48:14;10.50;99.90
29413;DHT22;16389;50.126;8.450;2023-04-24T02:50:40;10.50;99.90
29413;DHT22;16389;50.126;8.450;2023-04-24T02:53:06;10.50;99.90
29413;DHT22;16389;50.126;8.450;2023-04-24T02:55:31;10.50;99.90
29413;DHT22;16389;50.126;8.450;2023-04-24T02:57:57;10.50;99.90
29413;DHT22;16389;50.126;8.450;2023-04-24T03:00:23;10.50;99.90
29413;DHT22;16389;50.126;8.450;2023-04-24T03:02:48;10.50;99.90
29413;DHT22;16389;50.126;8.450;2023-04-24T03:05:15;10.60;99.90
29413;DHT22;16389;50.126;8.450;2023-04-24T03:07:41;10.50;99.90
29413;DHT22;16389;50.126;8.450;2023-04-24T03:10:07;10.50;99.90
29413;DHT22;16389;50.126;8.450;2023-04-24T03:12:33;10.50;99.90
29413;DHT22;16389;50.126;8.450;2023-04-24T03:14:58;10.50;99.90
29413;DHT22;16389;50.126;8.450;2023-04-24T03:17:24;10.50;99.90
29413;DHT22;16389;50.126;8.450;2023-04-24T03:19:50;10.50;99.90
29413;DHT22;16389;50.126;8.450;2023-04-24T03:22:16;10.50;99.90
29413;DHT22;16389;50.126;8.450;2023-04-24T03:24:41;10.60;99.90
29413;DHT22;16389;50.126;8.450;2023-04-24T03:27:07;10.50;99.90
29413;DHT22;16389;50.126;8.450;2023-04-24T03:29:32;10.50;99.90
29413;DHT22;16389;50.126;8.450;2023-04-24T03:31:58;10.50;99.90
29413;DHT22;16389;50.126;8.450;2023-04-24T03:34:24;10.50;99.90
29413;DHT22;16389;50.126;8.450;2023-04-24T03:36:49;10.50;99.90
29413;DHT22;16389;50.126;8.450;2023-04-24T03:39:15;10.50;99.90
29413;DHT22;16389;50.126;8.450;2023-04-24T03:41:41;10.50;99.90
29413;DHT22;16389;50.126;8.450;2023-04-24T03:44:06;10.50;99.90
29413;DHT22;16389;50.126;8.450;2023-04-24T03:46:32;10.40;99.90
29413;DHT22;16389;50.126;8.450;2023-04-24T03:48:58;10.40;99.90
29413;DHT22;16389;50.126;8.450;2023-04-24T03:51:23;10.40;99.90
29413;DHT22;16389;50.126;8.450;2023-04-24T03:53:49;10.40;99.90
29413;DHT22;16389;50.126;8.450;2023-04-24T03:56:15;10.30;99.90
29413;DHT22;16389;50.126;8.450;2023-04-24T03:58:40;10.30;99.90
29413;DHT22;16389;50.126;8.450;2023-04-24T04:01:06;10.30;99.90
29413;DHT22;16389;50.126;8.450;2023-04-24T04:03:32;10.20;99.90
29413;DHT22;16389;50.126;8.450;2023-04-24T04:05:58;10.20;99.90
29413;DHT22;16389;50.126;8.450;2023-04-24T04:08:24;10.10;99.90
29413;DHT22;16389;50.126;8.450;2023-04-24T04:10:50;10.00;99.90
29413;DHT22;16389;50.126;8.450;2023-04-24T04:13:16;9.90;99.90
29413;DHT22;16389;50.126;8.450;2023-04-24T04:15:41;9.80;99.90
29413;DHT22;16389;50.126;8.450;2023-04-24T04:18:07;9.70;99.90
29413;DHT22;16389;50.126;8.450;2023-04-24T04:20:33;9.60;99.90
29413;DHT22;16389;50.126;8.450;2023-04-24T04:22:58;9.50;99.90
29413;DHT22;16389;50.126;8.450;2023-04-24T04:25:24;9.40;99.90
29413;DHT22;16389;50.126;8.450;2023-04-24T04:27:49;9.40;99.90
29413;DHT22;16389;50.126;8.450;2023-04-24T04:30:16;9.40;99.90
29413;DHT22;16389;50.126;8.450;2023-04-24T04:32:43;9.20;99.90
29413;DHT22;16389;50.126;8.450;2023-04-24T04:35:09;9.20;99.90
29413;DHT22;16389;50.126;8.450;2023-04-24T04:37:35;9.10;99.90
29413;DHT22;16389;50.126;8.450;2023-04-24T04:40:02;9.00;99.90
29413;DHT22;16389;50.126;8.450;2023-04-24T04:42:32;9.00;99.90
29413;DHT22;16389;50.126;8.450;2023-04-24T04:45:02;9.00;99.90
29413;DHT22;16389;50.126;8.450;2023-04-24T04:47:28;8.90;99.90
29413;DHT22;16389;50.126;8.450;2023-04-24T04:49:57;8.90;99.90
29413;DHT22;16389;50.126;8.450;2023-04-24T04:52:22;8.90;99.90
29413;DHT22;16389;50.126;8.450;2023-04-24T04:54:50;8.80;99.90
29413;DHT22;16389;50.126;8.450;2023-04-24T04:57:16;8.80;99.90
29413;DHT22;16389;50.126;8.450;2023-04-24T04:59:41;8.80;99.90
29413;DHT22;16389;50.126;8.450;2023-04-24T05:02:07;8.90;99.90
29413;DHT22;16389;50.126;8.450;2023-04-24T05:04:33;8.90;99.90
29413;DHT22;16389;50.126;8.450;2023-04-24T05:06:59;8.90;99.90
29413;DHT22;16389;50.126;8.450;2023-04-24T05:09:24;8.90;99.90
29413;DHT22;16389;50.126;8.450;2023-04-24T05:11:53;8.80;99.90
29413;DHT22;16389;50.126;8.450;2023-04-24T05:14:18;8.80;99.90
29413;DHT22;16389;50.126;8.450;2023-04-24T05:16:44;8.80;99.90
29413;DHT22;16389;50.126;8.450;2023-04-24T05:19:10;8.90;99.90
29413;DHT22;16389;50.126;8.450;2023-04-24T05:21:38;8.90;99.90
29413;DHT22;16389;50.126;8.450;2023-04-24T05:24:05;8.90;99.90
29413;DHT22;16389;50.126;8.450;2023-04-24T05:26:30;8.90;99.90
29413;DHT22;16389;50.126;8.450;2023-04-24T05:28:56;8.90;99.90
29413;DHT22;16389;50.126;8.450;2023-04-24T05:31:22;9.00;99.90
29413;DHT22;16389;50.126;8.450;2023-04-24T05:33:47;8.90;99.90
29413;DHT22;16389;50.126;8.450;2023-04-24T05:36:13;9.00;99.90
29413;DHT22;16389;50.126;8.450;2023-04-24T05:38:39;9.00;99.90
29413;DHT22;16389;50.126;8.450;2023-04-24T05:41:04;9.00;99.90
29413;DHT22;16389;50.126;8.450;2023-04-24T05:43:30;9.10;99.90
29413;DHT22;16389;50.126;8.450;2023-04-24T05:45:56;9.00;99.90
29413;DHT22;16389;50.126;8.450;2023-04-24T05:48:21;9.00;99.90
29413;DHT22;16389;50.126;8.450;2023-04-24T05:50:48;8.90;99.90
29413;DHT22;16389;50.126;8.450;2023-04-24T05:53:13;8.90;99.90
29413;DHT22;16389;50.126;8.450;2023-04-24T05:55:39;8.90;99.90
29413;DHT22;16389;50.126;8.450;2023-04-24T05:58:05;8.90;99.90
29413;DHT22;16389;50.126;8.450;2023-04-24T06:00:31;8.80;99.90
29413;DHT22;16389;50.126;8.450;2023-04-24T06:02:58;8.80;99.90
29413;DHT22;16389;50.126;8.450;2023-04-24T06:05:24;8.70;99.90
29413;DHT22;16389;50.126;8.450;2023-04-24T06:07:50;8.70;99.90
29413;DHT22;16389;50.126;8.450;2023-04-24T06:10:16;8.80;99.90
29413;DHT22;16389;50.126;8.450;2023-04-24T06:12:41;8.80;99.90
29413;DHT22;16389;50.126;8.450;2023-04-24T06:15:07;8.90;99.90
29413;DHT22;16389;50.126;8.450;2023-04-24T06:17:34;9.00;99.90
29413;DHT22;16389;50.126;8.450;2023-04-24T06:19:59;9.00;99.90
29413;DHT22;16389;50.126;8.450;2023-04-24T06:22:25;9.10;99.90
29413;DHT22;16389;50.126;8.450;2023-04-24T06:24:51;9.00;99.90
29413;DHT22;16389;50.126;8.450;2023-04-24T06:27:16;9.00;99.90
29413;DHT22;16389;50.126;8.450;2023-04-24T06:29:42;8.90;99.90
29413;DHT22;16389;50.126;8.450;2023-04-24T06:32:07;8.90;99.90
29413;DHT22;16389;50.126;8.450;2023-04-24T06:34:33;9.10;99.90
29413;DHT22;16389;50.126;8.450;2023-04-24T06:37:00;9.20;99.90
29413;DHT22;16389;50.126;8.450;2023-04-24T06:39:25;9.40;99.90
29413;DHT22;16389;50.126;8.450;2023-04-24T06:41:51;9.70;99.90
29413;DHT22;16389;50.126;8.450;2023-04-24T06:44:17;9.90;99.90
29413;DHT22;16389;50.126;8.450;2023-04-24T06:46:42;10.20;99.90
29413;DHT22;16389;50.126;8.450;2023-04-24T06:49:09;10.50;99.90
29413;DHT22;16389;50.126;8.450;2023-04-24T06:51:35;10.70;99.90
29413;DHT22;16389;50.126;8.450;2023-04-24T06:54:01;10.70;99.90
29413;DHT22;16389;50.126;8.450;2023-04-24T06:56:27;10.50;99.90
29413;DHT22;16389;50.126;8.450;2023-04-24T06:58:54;10.50;99.90
29413;DHT22;16389;50.126;8.450;2023-04-24T07:01:20;10.50;99.90
29413;DHT22;16389;50.126;8.450;2023-04-24T07:03:46;10.50;99.90
29413;DHT22;16389;50.126;8.450;2023-04-24T07:06:11;10.60;99.90
29413;DHT22;16389;50.126;8.450;2023-04-24T07:08:38;10.60;99.90
29413;DHT22;16389;50.126;8.450;2023-04-24T07:11:03;10.80;99.90
29413;DHT22;16389;50.126;8.450;2023-04-24T07:13:29;10.80;99.90
29413;DHT22;16389;50.126;8.450;2023-04-24T07:15:55;10.80;99.90
29413;DHT22;16389;50.126;8.450;2023-04-24T07:18:22;10.90;99.90
29413;DHT22;16389;50.126;8.450;2023-04-24T07:20:48;11.00;99.90
29413;DHT22;16389;50.126;8.450;2023-04-24T07:23:15;11.20;99.90
29413;DHT22;16389;50.126;8.450;2023-04-24T07:25:41;11.20;99.90
29413;DHT22;16389;50.126;8.450;2023-04-24T07:28:07;11.30;99.90
29413;DHT22;16389;50.126;8.450;2023-04-24T07:30:33;11.40;99.90
29413;DHT22;16389;50.126;8.450;2023-04-24T07:32:59;11.50;99.90
29413;DHT22;16389;50.126;8.450;2023-04-24T07:35:26;11.70;99.90
29413;DHT22;16389;50.126;8.450;2023-04-24T07:37:55;11.90;99.90
29413;DHT22;16389;50.126;8.450;2023-04-24T07:40:21;11.90;99.90
29413;DHT22;16389;50.126;8.450;2023-04-24T07:42:47;12.20;99.90
29413;DHT22;16389;50.126;8.450;2023-04-24T07:45:16;12.40;99.90
29413;DHT22;16389;50.126;8.450;2023-04-24T07:47:42;12.50;99.90
29413;DHT22;16389;50.126;8.450;2023-04-24T07:50:09;12.50;99.90
29413;DHT22;16389;50.126;8.450;2023-04-24T07:52:35;12.50;99.90
29413;DHT22;16389;50.126;8.450;2023-04-24T07:55:01;12.80;99.90
29413;DHT22;16389;50.126;8.450;2023-04-24T07:57:28;12.80;99.90
29413;DHT22;16389;50.126;8.450;2023-04-24T07:59:53;12.80;99.90
29413;DHT22;16389;50.126;8.450;2023-04-24T08:02:19;12.90;99.90
29413;DHT22;16389;50.126;8.450;2023-04-24T08:04:47;12.80;99.90
29413;DHT22;16389;50.126;8.450;2023-04-24T08:07:12;12.90;99.90
29413;DHT22;16389;50.126;8.450;2023-04-24T08:09:38;13.10;99.90
29413;DHT22;16389;50.126;8.450;2023-04-24T08:12:04;13.30;99.90
29413;DHT22;16389;50.126;8.450;2023-04-24T08:14:30;13.10;99.90
29413;DHT22;16389;50.126;8.450;2023-04-24T08:16:55;13.10;99.90
29413;DHT22;16389;50.126;8.450;2023-04-24T08:19:21;13.30;99.90
29413;DHT22;16389;50.126;8.450;2023-04-24T08:21:48;13.70;99.90
29413;DHT22;16389;50.126;8.450;2023-04-24T08:24:14;14.20;99.90
29413;DHT22;16389;50.126;8.450;2023-04-24T08:26:40;14.20;99.90
29413;DHT22;16389;50.126;8.450;2023-04-24T08:29:06;14.30;99.90
29413;DHT22;16389;50.126;8.450;2023-04-24T08:31:34;14.40;99.90
29413;DHT22;16389;50.126;8.450;2023-04-24T08:34:00;14.00;99.90
29413;DHT22;16389;50.126;8.450;2023-04-24T08:36:26;13.80;99.90
29413;DHT22;16389;50.126;8.450;2023-04-24T08:38:52;13.60;99.90
29413;DHT22;16389;50.126;8.450;2023-04-24T08:41:18;13.50;99.90
29413;DHT22;16389;50.126;8.450;2023-04-24T08:43:46;13.70;99.90
29413;DHT22;16389;50.126;8.450;2023-04-24T08:46:14;13.60;99.90
29413;DHT22;16389;50.126;8.450;2023-04-24T08:48:40;13.50;99.90
29413;DHT22;16389;50.126;8.450;2023-04-24T08:51:09;13.40;99.90
29413;DHT22;16389;50.126;8.450;2023-04-24T08:53:35;13.20;99.90
29413;DHT22;16389;50.126;8.450;2023-04-24T08:56:01;13.00;99.90
29413;DHT22;16389;50.126;8.450;2023-04-24T08:58:28;13.10;99.90
29413;DHT22;16389;50.126;8.450;2023-04-24T09:00:55;13.00;99.90
29413;DHT22;16389;50.126;8.450;2023-04-24T09:03:21;12.90;99.90
29413;DHT22;16389;50.126;8.450;2023-04-24T09:05:48;12.90;99.90
29413;DHT22;16389;50.126;8.450;2023-04-24T09:08:17;13.20;99.90
29413;DHT22;16389;50.126;8.450;2023-04-24T09:10:43;13.40;99.90
29413;DHT22;16389;50.126;8.450;2023-04-24T09:13:09;13.30;99.90
29413;DHT22;16389;50.126;8.450;2023-04-24T09:15:36;13.10;99.90
29413;DHT22;16389;50.126;8.450;2023-04-24T09:18:02;13.00;99.90
29413;DHT22;16389;50.126;8.450;2023-04-24T09:20:28;12.90;99.90
29413;DHT22;16389;50.126;8.450;2023-04-24T09:22:55;12.80;99.90
29413;DHT22;16389;50.126;8.450;2023-04-24T09:25:22;12.70;99.90
29413;DHT22;16389;50.126;8.450;2023-04-24T09:27:47;12.60;99.90
29413;DHT22;16389;50.126;8.450;2023-04-24T09:30:14;12.70;99.90
29413;DHT22;16389;50.126;8.450;2023-04-24T09:32:46;12.80;99.90
29413;DHT22;16389;50.126;8.450;2023-04-24T09:35:14;12.80;99.90
29413;DHT22;16389;50.126;8.450;2023-04-24T09:37:45;12.90;99.90
29413;DHT22;16389;50.126;8.450;2023-04-24T09:40:16;12.90;99.90
29413;DHT22;16389;50.126;8.450;2023-04-24T09:43:00;12.90;99.90
29413;DHT22;16389;50.126;8.450;2023-04-24T09:45:35;12.90;99.90
29413;DHT22;16389;50.126;8.450;2023-04-24T09:48:01;12.80;99.90
29413;DHT22;16389;50.126;8.450;2023-04-24T09:50:30;12.80;99.90
29413;DHT22;16389;50.126;8.450;2023-04-24T09:53:06;13.10;99.90
29413;DHT22;16389;50.126;8.450;2023-04-24T09:55:39;13.40;99.90
29413;DHT22;16389;50.126;8.450;2023-04-24T09:58:08;13.60;99.90
29413;DHT22;16389;50.126;8.450;2023-04-24T10:00:33;13.80;99.90
29413;DHT22;16389;50.126;8.450;2023-04-24T10:03:01;14.20;99.90
29413;DHT22;16389;50.126;8.450;2023-04-24T10:05:34;14.00;99.90
29413;DHT22;16389;50.126;8.450;2023-04-24T10:08:05;13.60;99.90
29413;DHT22;16389;50.126;8.450;2023-04-24T10:10:33;13.50;99.90
29413;DHT22;16389;50.126;8.450;2023-04-24T10:12:59;13.80;99.90
29413;DHT22;16389;50.126;8.450;2023-04-24T10:15:26;13.50;99.90
29413;DHT22;16389;50.126;8.450;2023-04-24T10:17:52;13.40;99.90
29413;DHT22;16389;50.126;8.450;2023-04-24T10:20:26;13.10;99.90
29413;DHT22;16389;50.126;8.450;2023-04-24T10:22:53;12.90;99.90
29413;DHT22;16389;50.126;8.450;2023-04-24T10:25:31;12.40;99.90
29413;DHT22;16389;50.126;8.450;2023-04-24T10:27:58;12.20;99.90
29413;DHT22;16389;50.126;8.450;2023-04-24T10:30:27;11.70;99.90
29413;DHT22;16389;50.126;8.450;2023-04-24T10:32:53;11.70;99.90
29413;DHT22;16389;50.126;8.450;2023-04-24T10:35:19;11.60;99.90
29413;DHT22;16389;50.126;8.450;2023-04-24T10:37:56;11.50;99.90
29413;DHT22;16389;50.126;8.450;2023-04-24T10:40:34;11.60;99.90
29413;DHT22;16389;50.126;8.450;2023-04-24T10:43:03;11.70;99.90
29413;DHT22;16389;50.126;8.450;2023-04-24T10:45:31;12.00;99.90
29413;DHT22;16389;50.126;8.450;2023-04-24T10:47:59;12.90;99.90
29413;DHT22;16389;50.126;8.450;2023-04-24T10:50:28;13.40;99.90
29413;DHT22;16389;50.126;8.450;2023-04-24T10:53:05;14.00;99.90
29413;DHT22;16389;50.126;8.450;2023-04-24T10:55:51;14.90;99.90
29413;DHT22;16389;50.126;8.450;2023-04-24T10:58:24;15.50;99.90
29413;DHT22;16389;50.126;8.450;2023-04-24T11:01:00;15.20;99.90
29413;DHT22;16389;50.126;8.450;2023-04-24T11:03:30;15.30;99.90
29413;DHT22;16389;50.126;8.450;2023-04-24T11:06:02;15.60;99.90
29413;DHT22;16389;50.126;8.450;2023-04-24T11:08:36;15.40;99.90
29413;DHT22;16389;50.126;8.450;2023-04-24T11:11:11;15.80;99.90
29413;DHT22;16389;50.126;8.450;2023-04-24T11:16:28;16.20;99.90
29413;DHT22;16389;50.126;8.450;2023-04-24T11:21:31;15.30;99.90
29413;DHT22;16389;50.126;8.450;2023-04-24T11:23:57;14.80;99.90
29413;DHT22;16389;50.126;8.450;2023-04-24T11:26:23;14.30;99.90
29413;DHT22;16389;50.126;8.450;2023-04-24T11:29:06;13.80;99.90
29413;DHT22;16389;50.126;8.450;2023-04-24T11:31:40;13.60;99.90
29413;DHT22;16389;50.126;8.450;2023-04-24T11:34:12;13.60;99.90
29413;DHT22;16389;50.126;8.450;2023-04-24T11:36:39;13.70;99.90
29413;DHT22;16389;50.126;8.450;2023-04-24T11:39:05;13.90;99.90
29413;DHT22;16389;50.126;8.450;2023-04-24T11:41:31;14.10;99.90
29413;DHT22;16389;50.126;8.450;2023-04-24T11:43:57;14.10;99.90
29413;DHT22;16389;50.126;8.450;2023-04-24T11:46:27;14.00;99.90
29413;DHT22;16389;50.126;8.450;2023-04-24T11:48:53;14.00;99.90
29413;DHT22;16389;50.126;8.450;2023-04-24T11:51:19;13.90;99.90
29413;DHT22;16389;50.126;8.450;2023-04-24T11:53:44;14.00;99.90
29413;DHT22;16389;50.126;8.450;2023-04-24T11:56:10;13.70;99.90
29413;DHT22;16389;50.126;8.450;2023-04-24T11:58:38;13.50;99.90
29413;DHT22;16389;50.126;8.450;2023-04-24T12:01:04;13.10;99.90
29413;DHT22;16389;50.126;8.450;2023-04-24T12:03:30;12.70;99.90
29413;DHT22;16389;50.126;8.450;2023-04-24T12:06:10;12.60;99.90
29413;DHT22;16389;50.126;8.450;2023-04-24T12:08:36;12.60;99.90
29413;DHT22;16389;50.126;8.450;2023-04-24T12:11:03;13.30;99.90
29413;DHT22;16389;50.126;8.450;2023-04-24T12:13:29;13.70;99.90
29413;DHT22;16389;50.126;8.450;2023-04-24T12:15:56;13.60;99.90
29413;DHT22;16389;50.126;8.450;2023-04-24T12:18:23;13.20;99.90
29413;DHT22;16389;50.126;8.450;2023-04-24T12:20:49;13.00;99.90
29413;DHT22;16389;50.126;8.450;2023-04-24T12:23:15;12.70;99.90
29413;DHT22;16389;50.126;8.450;2023-04-24T12:25:41;12.40;99.90
29413;DHT22;16389;50.126;8.450;2023-04-24T12:28:16;12.40;99.90
29413;DHT22;16389;50.126;8.450;2023-04-24T12:30:47;13.00;99.90
29413;DHT22;16389;50.126;8.450;2023-04-24T12:33:21;13.30;99.90
29413;DHT22;16389;50.126;8.450;2023-04-24T12:35:48;13.50;99.90
29413;DHT22;16389;50.126;8.450;2023-04-24T12:38:16;13.60;99.90
29413;DHT22;16389;50.126;8.450;2023-04-24T12:40:47;13.80;99.90
29413;DHT22;16389;50.126;8.450;2023-04-24T12:43:19;15.30;99.90
29413;DHT22;16389;50.126;8.450;2023-04-24T12:45:47;18.40;99.90
29413;DHT22;16389;50.126;8.450;2023-04-24T12:48:12;20.40;99.90
29413;DHT22;16389;50.126;8.450;2023-04-24T12:50:39;20.70;99.90
29413;DHT22;16389;50.126;8.450;2023-04-24T12:53:08;21.50;99.90
29413;DHT22;16389;50.126;8.450;2023-04-24T12:55:34;22.90;98.30
29413;DHT22;16389;50.126;8.450;2023-04-24T12:58:00;22.10;95.00
29413;DHT22;16389;50.126;8.450;2023-04-24T13:00:27;20.70;95.30
29413;DHT22;16389;50.126;8.450;2023-04-24T13:02:53;19.50;95.20
29413;DHT22;16389;50.126;8.450;2023-04-24T13:05:18;18.60;95.30
29413;DHT22;16389;50.126;8.450;2023-04-24T13:07:44;18.90;97.10
29413;DHT22;16389;50.126;8.450;2023-04-24T13:10:10;18.60;95.70
29413;DHT22;16389;50.126;8.450;2023-04-24T13:12:35;19.00;95.20
29413;DHT22;16389;50.126;8.450;2023-04-24T13:15:02;18.50;97.20
29413;DHT22;16389;50.126;8.450;2023-04-24T13:17:28;17.70;97.50
29413;DHT22;16389;50.126;8.450;2023-04-24T13:19:55;16.80;97.60
29413;DHT22;16389;50.126;8.450;2023-04-24T13:22:21;15.80;98.60
29413;DHT22;16389;50.126;8.450;2023-04-24T13:24:47;15.20;99.90
29413;DHT22;16389;50.126;8.450;2023-04-24T13:27:15;14.90;99.90
29413;DHT22;16389;50.126;8.450;2023-04-24T13:29:41;14.80;99.90
29413;DHT22;16389;50.126;8.450;2023-04-24T13:32:07;14.90;99.90
29413;DHT22;16389;50.126;8.450;2023-04-24T13:34:33;15.00;99.90
29413;DHT22;16389;50.126;8.450;2023-04-24T13:37:00;14.90;99.90
29413;DHT22;16389;50.126;8.450;2023-04-24T13:39:26;14.60;99.90
29413;DHT22;16389;50.126;8.450;2023-04-24T13:41:55;14.40;99.90
29413;DHT22;16389;50.126;8.450;2023-04-24T13:44:21;14.20;99.90
29413;DHT22;16389;50.126;8.450;2023-04-24T13:46:49;14.10;99.90
29413;DHT22;16389;50.126;8.450;2023-04-24T13:49:16;14.80;99.90
29413;DHT22;16389;50.126;8.450;2023-04-24T13:51:42;17.00;99.90
29413;DHT22;16389;50.126;8.450;2023-04-24T13:54:08;19.90;99.60
29413;DHT22;16389;50.126;8.450;2023-04-24T13:56:34;23.20;94.10
29413;DHT22;16389;50.126;8.450;2023-04-24T13:59:00;24.90;87.00
29413;DHT22;16389;50.126;8.450;2023-04-24T14:01:26;23.70;83.50
29413;DHT22;16389;50.126;8.450;2023-04-24T14:03:55;22.30;80.70
29413;DHT22;16389;50.126;8.450;2023-04-24T14:06:22;20.80;86.10
29413;DHT22;16389;50.126;8.450;2023-04-24T14:08:49;20.40;86.60
29413;DHT22;16389;50.126;8.450;2023-04-24T14:11:16;21.70;88.50
29413;DHT22;16389;50.126;8.450;2023-04-24T14:13:42;23.10;82.00
29413;DHT22;16389;50.126;8.450;2023-04-24T14:16:09;23.10;79.10
29413;DHT22;16389;50.126;8.450;2023-04-24T14:18:35;21.90;77.40
29413;DHT22;16389;50.126;8.450;2023-04-24T14:21:02;20.50;80.40
29413;DHT22;16389;50.126;8.450;2023-04-24T14:23:28;18.90;85.80
29413;DHT22;16389;50.126;8.450;2023-04-24T14:25:53;17.80;88.60
29413;DHT22;16389;50.126;8.450;2023-04-24T14:28:20;16.80;91.50
29413;DHT22;16389;50.126;8.450;2023-04-24T14:30:49;16.20;92.60
29413;DHT22;16389;50.126;8.450;2023-04-24T14:33:14;15.60;93.70
29413;DHT22;16389;50.126;8.450;2023-04-24T14:35:41;15.30;97.60
29413;DHT22;16389;50.126;8.450;2023-04-24T14:38:10;15.20;99.90
29413;DHT22;16389;50.126;8.450;2023-04-24T14:40:36;15.30;98.50
29413;DHT22;16389;50.126;8.450;2023-04-24T14:43:03;15.60;96.20
29413;DHT22;16389;50.126;8.450;2023-04-24T14:45:30;17.60;97.30
29413;DHT22;16389;50.126;8.450;2023-04-24T14:47:56;20.00;93.20
29413;DHT22;16389;50.126;8.450;2023-04-24T14:50:22;21.10;90.90
29413;DHT22;16389;50.126;8.450;2023-04-24T14:52:47;20.20;86.40
29413;DHT22;16389;50.126;8.450;2023-04-24T14:55:13;18.90;87.60
29413;DHT22;16389;50.126;8.450;2023-04-24T14:57:40;17.60;88.20
29413;DHT22;16389;50.126;8.450;2023-04-24T15:00:07;16.40;92.20
29413;DHT22;16389;50.126;8.450;2023-04-24T15:02:35;15.80;92.30
29413;DHT22;16389;50.126;8.450;2023-04-24T15:05:03;15.20;94.80
29413;DHT22;16389;50.126;8.450;2023-04-24T15:07:29;14.80;94.50
29413;DHT22;16389;50.126;8.450;2023-04-24T15:09:56;14.50;95.70
29413;DHT22;16389;50.126;8.450;2023-04-24T15:12:22;14.40;95.80
29413;DHT22;16389;50.126;8.450;2023-04-24T15:14:48;14.40;97.10
29413;DHT22;16389;50.126;8.450;2023-04-24T15:17:13;14.40;96.00
29413;DHT22;16389;50.126;8.450;2023-04-24T15:19:39;14.40;96.50
29413;DHT22;16389;50.126;8.450;2023-04-24T15:22:05;14.30;97.10
29413;DHT22;16389;50.126;8.450;2023-04-24T15:24:30;14.30;97.40
29413;DHT22;16389;50.126;8.450;2023-04-24T15:26:56;14.20;95.90
29413;DHT22;16389;50.126;8.450;2023-04-24T15:29:22;14.10;95.90
29413;DHT22;16389;50.126;8.450;2023-04-24T15:31:50;14.00;95.60
29413;DHT22;16389;50.126;8.450;2023-04-24T15:34:16;13.90;96.40